Time;durP1;ratioP1;P1;durP2;ratioP2;P2;SDS_P1;SDS_P2;PMS_P1;PMS_P2;Temp;Humidity;BMP_temperature;BMP_pressure;BME280_temperature;BME280_humidity;BME280_pressure;Samples;Min_cycle;Max_cycle;Signal;HPM_P1;HPM_P2
2021/04/23 00:00:51;;;;;;;5.53;2.15;;;;;;;-1.53;79.02;93678.59;2068197;28;20445;-83
2021/04/23 00:01:52;;;;;;;4.78;2.00;;;;;;;-1.50;79.33;93676.41;2076226;28;20025;-83
2021/04/23 00:02:56;;;;;;;4.40;2.15;;;;;;;-1.45;79.09;93679.56;2064901;28;20453;-83
2021/04/23 00:04:03;;;;;;;2.88;1.80;;;;;;;-1.49;78.54;93678.72;2065393;28;20030;-83
2021/04/23 00:05:05;;;;;;;4.55;2.33;;;;;;;-1.46;78.09;93677.28;2058230;28;20506;-83
2021/04/23 00:06:20;;;;;;;7.00;2.55;;;;;;;-1.45;78.32;93676.19;2059893;28;20442;-83
2021/04/23 00:07:21;;;;;;;4.13;2.03;;;;;;;-1.44;78.94;93683.00;2075222;28;20855;-84
2021/04/23 00:08:23;;;;;;;3.85;1.90;;;;;;;-1.47;79.17;93679.16;2073434;28;20467;-84
2021/04/23 00:09:30;;;;;;;3.10;1.75;;;;;;;-1.48;79.17;93677.63;2063747;28;20026;-83
2021/04/23 00:10:30;;;;;;;4.97;2.20;;;;;;;-1.53;79.11;93673.34;2070539;28;20445;-84
2021/04/23 00:11:35;;;;;;;5.95;2.00;;;;;;;-1.55;80.40;93672.91;2070037;28;20495;-83
2021/04/23 00:12:36;;;;;;;4.85;2.00;;;;;;;-1.40;78.36;93668.13;2074303;28;20030;-83
2021/04/23 00:13:38;;;;;;;3.00;1.80;;;;;;;-1.50;78.81;93671.91;2073194;28;20829;-83
2021/04/23 00:14:50;;;;;;;4.45;1.90;;;;;;;-1.59;78.90;93673.88;2057867;28;20527;-83
2021/04/23 00:15:52;;;;;;;3.70;2.05;;;;;;;-1.64;79.95;93679.31;2063389;28;20462;-83
2021/04/23 00:16:53;;;;;;;2.65;1.90;;;;;;;-1.57;80.37;93672.47;2063144;28;20476;-83
2021/04/23 00:17:54;;;;;;;4.57;2.28;;;;;;;-1.50;80.08;93673.78;2065830;28;20426;-83
2021/04/23 00:18:54;;;;;;;8.05;2.22;;;;;;;-1.57;79.42;93672.47;2063338;28;21303;-83
2021/04/23 00:19:55;;;;;;;5.88;2.03;;;;;;;-1.62;79.08;93666.69;2080656;28;20021;-83
2021/04/23 00:20:56;;;;;;;5.70;2.03;;;;;;;-1.63;79.12;93676.38;2064178;28;20022;-84
2021/04/23 00:21:58;;;;;;;3.10;2.08;;;;;;;-1.43;78.97;93668.78;2065760;28;20062;-83
2021/04/23 00:23:03;;;;;;;5.32;2.08;;;;;;;-1.47;78.83;93673.91;2082683;28;20017;-83
2021/04/23 00:24:05;;;;;;;4.85;1.92;;;;;;;-1.50;79.20;93664.06;2089251;28;20524;-83
2021/04/23 00:25:06;;;;;;;4.63;2.40;;;;;;;-1.47;79.64;93671.28;2073624;28;20428;-83
2021/04/23 00:26:07;;;;;;;7.70;2.25;;;;;;;-1.54;79.33;93671.84;2062928;28;20973;-83
2021/04/23 00:27:08;;;;;;;3.28;1.90;;;;;;;-1.50;79.78;93674.53;2073241;28;20452;-83
2021/04/23 00:28:12;;;;;;;7.32;2.20;;;;;;;-1.59;80.80;93666.78;2070098;28;22424;-83
2021/04/23 00:29:13;;;;;;;4.10;2.20;;;;;;;-1.61;80.16;93671.59;2068564;28;20060;-83
2021/04/23 00:30:14;;;;;;;3.25;2.50;;;;;;;-1.56;79.68;93671.38;2065174;28;20465;-84
2021/04/23 00:31:15;;;;;;;5.22;1.98;;;;;;;-1.55;79.43;93669.50;2057162;28;20114;-83
2021/04/23 00:33:35;;;;;;;2.97;1.83;;;;;;;-1.59;80.06;93663.38;2084874;28;20484;-83
2021/04/23 00:34:36;;;;;;;4.07;2.00;;;;;;;-1.55;79.55;93670.28;2075135;28;20460;-84
2021/04/23 00:35:40;;;;;;;3.83;1.83;;;;;;;-1.70;80.93;93657.81;2072882;28;20864;-84
2021/04/23 00:36:41;;;;;;;4.57;2.33;;;;;;;-1.68;79.73;93658.25;2074868;28;20120;-83
2021/04/23 00:37:46;;;;;;;3.40;2.08;;;;;;;-1.54;80.31;93669.22;2082647;28;20436;-83
2021/04/23 00:38:46;;;;;;;6.53;2.00;;;;;;;-1.57;80.05;93672.47;2080762;28;20548;-83
2021/04/23 00:39:47;;;;;;;3.75;2.35;;;;;;;-1.50;80.41;93668.53;2065538;28;20516;-83
2021/04/23 00:41:01;;;;;;;6.20;2.65;;;;;;;-1.52;80.71;93668.88;2057232;28;20035;-83
2021/04/23 00:42:05;;;;;;;4.15;1.83;;;;;;;-1.57;79.62;93669.84;2086187;28;20053;-83
2021/04/23 00:43:07;;;;;;;5.10;2.08;;;;;;;-1.59;80.50;93668.63;2086844;28;21182;-83
2021/04/23 00:44:07;;;;;;;5.88;2.10;;;;;;;-1.70;80.29;93670.91;2065254;28;20461;-83
2021/04/23 00:45:10;;;;;;;5.65;2.25;;;;;;;-1.65;79.90;93668.09;2072952;28;20460;-83
2021/04/23 00:46:13;;;;;;;3.75;2.20;;;;;;;-1.62;80.24;93664.81;2064815;28;20061;-84
2021/04/23 00:47:13;;;;;;;3.47;2.10;;;;;;;-1.58;79.64;93668.31;2072460;28;20441;-83
2021/04/23 00:48:15;;;;;;;5.95;2.08;;;;;;;-1.56;80.21;93668.00;2085838;28;20479;-84
2021/04/23 00:49:16;;;;;;;6.38;2.13;;;;;;;-1.64;79.69;93660.97;2065044;28;20113;-84
2021/04/23 00:50:27;;;;;;;4.47;1.70;;;;;;;-1.62;79.86;93664.06;2073209;28;20575;-84
2021/04/23 00:51:34;;;;;;;5.38;2.00;;;;;;;-1.66;79.76;93663.19;2066398;28;20145;-83
2021/04/23 00:52:34;;;;;;;3.92;2.40;;;;;;;-1.63;79.82;93657.28;2065825;28;20438;-84
2021/04/23 00:53:39;;;;;;;4.55;1.98;;;;;;;-1.73;79.95;93662.94;2073011;28;20487;-84
2021/04/23 00:54:40;;;;;;;6.03;2.15;;;;;;;-1.65;79.95;93664.69;2081368;28;20076;-84
2021/04/23 00:55:41;;;;;;;3.15;1.83;;;;;;;-1.72;80.40;93659.22;2073328;28;20877;-84
2021/04/23 00:56:41;;;;;;;5.35;1.90;;;;;;;-1.78;80.96;93659.44;2073074;28;20033;-84
2021/04/23 00:57:42;;;;;;;2.97;1.88;;;;;;;-1.78;79.77;93674.38;2056059;28;20434;-84
2021/04/23 00:58:44;;;;;;;5.88;1.90;;;;;;;-1.85;80.33;93671.53;2072960;28;20364;-84
2021/04/23 00:59:44;;;;;;;2.67;1.88;;;;;;;-1.85;81.62;93667.03;2072625;28;20133;-84
2021/04/23 01:00:49;;;;;;;5.65;2.22;;;;;;;-1.81;80.27;93667.94;2065108;28;20438;-84
2021/04/23 01:02:07;;;;;;;5.22;2.28;;;;;;;-1.84;80.22;93659.97;2074301;28;20069;-84
2021/04/23 01:03:10;;;;;;;3.35;1.90;;;;;;;-1.87;80.27;93658.00;2079050;28;20480;-84
2021/04/23 01:04:18;;;;;;;3.22;1.73;;;;;;;-1.88;79.98;93662.47;2065004;28;20461;-83
2021/04/23 01:05:26;;;;;;;2.55;2.03;;;;;;;-1.84;80.51;93662.59;2065625;28;20458;-84
2021/04/23 01:06:30;;;;;;;5.60;2.10;;;;;;;-1.86;80.38;93665.50;2058692;28;20458;-83
2021/04/23 01:07:30;;;;;;;6.50;2.72;;;;;;;-1.81;80.52;93661.94;2079325;28;20440;-84
2021/04/23 01:08:31;;;;;;;3.85;1.90;;;;;;;-1.86;80.45;93665.50;2071808;28;20500;-84
2021/04/23 01:09:31;;;;;;;3.60;2.05;;;;;;;-1.91;80.76;93657.88;2062541;28;20026;-84
2021/04/23 01:10:33;;;;;;;4.32;2.45;;;;;;;-1.88;80.42;93656.47;2067197;28;20025;-84
2021/04/23 01:11:33;;;;;;;4.03;2.00;;;;;;;-1.93;81.37;93654.81;2078372;28;20033;-84
2021/04/23 01:12:34;;;;;;;4.53;2.28;;;;;;;-1.95;80.75;93653.59;2065130;28;20469;-84
2021/04/23 01:13:35;;;;;;;4.63;2.10;;;;;;;-1.93;80.26;93659.25;2073352;28;20545;-84
2021/04/23 01:14:36;;;;;;;4.63;1.83;;;;;;;-2.01;79.98;93660.13;2081073;28;20025;-84
2021/04/23 01:15:37;;;;;;;5.45;1.67;;;;;;;-1.99;80.50;93661.34;2064837;28;20776;-84
2021/04/23 01:16:38;;;;;;;3.03;1.98;;;;;;;-1.82;80.69;93657.78;2067039;28;20536;-84
2021/04/23 01:17:39;;;;;;;4.32;2.03;;;;;;;-1.80;80.23;93658.22;2073149;28;20025;-84
2021/04/23 01:18:40;;;;;;;3.38;2.13;;;;;;;-1.83;80.02;93659.63;2070377;28;20453;-84
2021/04/23 01:19:40;;;;;;;4.25;2.28;;;;;;;-1.89;80.41;93662.78;2064755;28;20481;-84
2021/04/23 01:20:41;;;;;;;2.75;1.75;;;;;;;-1.87;80.56;93650.91;2056893;28;20027;-84
2021/04/23 01:21:42;;;;;;;4.70;1.95;;;;;;;-1.96;80.96;93658.06;2055871;28;20029;-84
2021/04/23 01:22:42;;;;;;;3.95;1.95;;;;;;;-2.00;81.87;93651.94;2056532;28;20064;-85
2021/04/23 01:23:45;;;;;;;5.50;1.92;;;;;;;-2.02;82.21;93667.22;2072582;28;20029;-84
2021/04/23 01:24:45;;;;;;;4.80;2.28;;;;;;;-2.09;81.00;93662.50;2072907;28;20026;-84
2021/04/23 01:25:45;;;;;;;4.18;1.92;;;;;;;-1.96;81.25;93657.31;2064898;28;20481;-84
2021/04/23 01:26:52;;;;;;;5.18;2.10;;;;;;;-2.10;81.18;93660.22;2064941;28;20026;-84
2021/04/23 01:27:52;;;;;;;3.60;2.00;;;;;;;-2.07;80.68;93657.69;2065172;28;20033;-84
2021/04/23 01:28:54;;;;;;;7.80;2.30;;;;;;;-1.95;80.57;93650.97;2056654;28;20465;-84
2021/04/23 01:29:55;;;;;;;4.18;2.00;;;;;;;-1.93;80.58;93652.19;2065025;28;20023;-84
2021/04/23 01:30:58;;;;;;;5.88;2.35;;;;;;;-2.08;80.71;93650.16;2073024;28;20437;-84
2021/04/23 01:31:58;;;;;;;3.33;1.88;;;;;;;-2.12;81.58;93657.13;2081182;28;20367;-84
2021/04/23 01:32:59;;;;;;;4.25;1.80;;;;;;;-2.12;81.78;93657.13;2080905;28;20451;-84
2021/04/23 01:34:08;;;;;;;5.60;2.30;;;;;;;-2.10;81.79;93655.75;2063771;28;20058;-84
2021/04/23 01:35:17;;;;;;;4.20;1.85;;;;;;;-2.16;81.53;93649.16;2067008;28;20030;-83
2021/04/23 01:36:19;;;;;;;4.80;2.15;;;;;;;-2.09;82.80;93656.50;2065592;28;20981;-84
2021/04/23 01:37:19;;;;;;;5.32;2.03;;;;;;;-2.05;82.14;93652.16;2064748;28;20750;-83
2021/04/23 01:38:20;;;;;;;4.35;2.17;;;;;;;-2.09;82.16;93654.66;2064763;28;20524;-84
2021/04/23 01:39:25;;;;;;;4.13;2.28;;;;;;;-2.11;82.22;93654.22;2080796;28;20462;-83
2021/04/23 01:40:25;;;;;;;5.93;2.35;;;;;;;-2.11;82.34;93653.44;2064529;28;20446;-83
2021/04/23 01:41:26;;;;;;;5.63;2.13;;;;;;;-2.15;81.74;93655.16;2056711;28;20501;-83
2021/04/23 01:42:27;;;;;;;3.30;1.90;;;;;;;-2.16;81.91;93661.50;2064746;28;20035;-83
2021/04/23 01:43:27;;;;;;;4.30;1.73;;;;;;;-2.16;82.09;93657.00;2081012;28;20025;-84
2021/04/23 01:44:29;;;;;;;4.60;2.00;;;;;;;-2.09;82.19;93657.28;2064828;28;20376;-84
2021/04/23 01:45:30;;;;;;;3.78;2.17;;;;;;;-2.09;81.88;93659.88;2063811;28;20033;-84
2021/04/23 01:46:34;;;;;;;4.30;2.30;;;;;;;-2.13;82.38;93660.84;2074280;28;20437;-83
2021/04/23 01:47:35;;;;;;;3.17;1.83;;;;;;;-2.20;82.76;93656.13;2064905;28;20464;-84
2021/04/23 01:48:36;;;;;;;2.88;1.90;;;;;;;-2.20;82.75;93666.59;2072507;28;20451;-84
2021/04/23 01:49:37;;;;;;;2.67;1.90;;;;;;;-2.16;83.06;93661.50;2070638;28;20600;-83
2021/04/23 01:50:37;;;;;;;6.05;2.20;;;;;;;-2.16;82.82;93661.50;2064172;28;20026;-84
2021/04/23 01:51:41;;;;;;;2.47;1.60;;;;;;;-2.14;82.18;93661.94;2072318;28;20053;-84
2021/04/23 01:52:42;;;;;;;4.38;1.70;;;;;;;-2.17;82.05;93663.34;2073365;28;20068;-84
2021/04/23 01:53:43;;;;;;;3.38;1.80;;;;;;;-2.15;82.59;93665.63;2072633;28;20527;-84
2021/04/23 01:54:44;;;;;;;3.63;1.90;;;;;;;-2.19;82.24;93670.00;2072769;28;20037;-84
2021/04/23 01:55:45;;;;;;;2.30;1.80;;;;;;;-2.16;82.09;93674.59;2080959;28;20430;-84
2021/04/23 01:56:47;;;;;;;4.50;1.70;;;;;;;-2.11;82.39;93677.00;2079934;28;20455;-84
2021/04/23 01:57:48;;;;;;;3.63;1.90;;;;;;;-2.16;81.73;93677.19;2080431;28;20813;-84
2021/04/23 01:58:49;;;;;;;4.85;2.40;;;;;;;-2.17;82.10;93676.44;2076469;28;20454;-84
2021/04/23 01:59:50;;;;;;;2.67;1.80;;;;;;;-2.15;82.20;93669.03;2080353;28;20451;-84
2021/04/23 02:00:51;;;;;;;4.70;2.00;;;;;;;-2.24;82.60;93670.94;2088874;28;20032;-84
2021/04/23 02:01:52;;;;;;;2.83;1.52;;;;;;;-2.16;81.71;93671.97;2080745;28;20459;-83
2021/04/23 02:04:46;;;;;;;4.72;2.35;;;;;;;-2.27;82.21;93679.47;2139223;27;20523;-82
2021/04/23 02:05:48;;;;;;;4.97;2.00;;;;;;;-2.33;82.27;93671.03;2121831;27;20395;-82
2021/04/23 02:06:51;;;;;;;3.33;2.13;;;;;;;-2.30;82.76;93680.09;2121391;27;20488;-83
2021/04/23 02:07:53;;;;;;;4.18;2.50;;;;;;;-2.26;82.61;93682.84;2104973;27;20447;-83
2021/04/23 02:08:54;;;;;;;3.80;2.00;;;;;;;-2.35;82.88;93675.81;2111895;28;20457;-82
2021/04/23 02:09:54;;;;;;;4.28;1.85;;;;;;;-2.37;82.78;93677.22;2104523;28;20449;-83
2021/04/23 02:11:02;;;;;;;5.75;1.98;;;;;;;-2.29;82.31;93674.53;2111830;28;20027;-83
2021/04/23 02:12:04;;;;;;;4.60;2.08;;;;;;;-2.36;81.99;93676.91;2106751;28;20035;-84
2021/04/23 02:13:05;;;;;;;2.67;1.88;;;;;;;-2.28;82.79;93667.47;2104910;28;20445;-84
2021/04/23 02:14:06;;;;;;;2.42;1.98;;;;;;;-2.41;82.68;93671.09;2110497;28;20502;-83
2021/04/23 02:15:10;;;;;;;2.95;1.92;;;;;;;-2.40;82.25;93668.16;2117091;28;20531;-84
2021/04/23 02:16:13;;;;;;;3.60;2.28;;;;;;;-2.39;82.77;93674.91;2104881;28;20047;-84
2021/04/23 02:17:14;;;;;;;4.50;1.95;;;;;;;-2.38;82.76;93671.22;2103901;28;20513;-84
2021/04/23 02:18:15;;;;;;;5.85;2.42;;;;;;;-2.42;82.84;93672.16;2109475;28;20450;-85
2021/04/23 02:19:19;;;;;;;2.88;2.10;;;;;;;-2.35;82.20;93677.66;2107854;28;20137;-84
2021/04/23 02:20:29;;;;;;;4.32;1.80;;;;;;;-2.47;82.53;93672.38;2113464;28;20053;-84
2021/04/23 02:21:30;;;;;;;4.13;2.15;;;;;;;-2.51;82.85;93682.69;2091412;28;20488;-84
2021/04/23 02:22:30;;;;;;;5.78;1.85;;;;;;;-2.33;83.24;93678.09;2098788;28;20079;-84
2021/04/23 02:23:31;;;;;;;5.38;2.17;;;;;;;-2.39;82.35;93676.78;2100273;28;20020;-84
2021/04/23 02:24:31;;;;;;;5.43;2.20;;;;;;;-2.45;81.87;93673.59;2103166;28;20031;-84
2021/04/23 02:25:33;;;;;;;3.10;2.03;;;;;;;-2.45;82.39;93673.59;2112965;28;20043;-84
2021/04/23 02:26:35;;;;;;;4.55;2.42;;;;;;;-2.42;82.92;93672.16;2113036;27;20127;-84
2021/04/23 02:27:35;;;;;;;3.33;1.70;;;;;;;-2.44;82.87;93676.97;2112953;28;20468;-84
2021/04/23 02:28:37;;;;;;;3.65;1.90;;;;;;;-2.47;81.96;93672.38;2097625;28;20475;-84
2021/04/23 02:29:37;;;;;;;5.18;2.08;;;;;;;-2.54;82.60;93668.41;2111012;27;20026;-84
2021/04/23 02:30:41;;;;;;;4.70;2.10;;;;;;;-2.51;82.86;93674.09;2105914;28;20443;-84
2021/04/23 02:31:46;;;;;;;4.32;1.98;;;;;;;-2.55;83.04;93677.38;2105242;28;20550;-85
2021/04/23 02:32:46;;;;;;;3.53;1.70;;;;;;;-2.56;82.38;93675.81;2112843;28;20446;-84
2021/04/23 02:33:49;;;;;;;5.03;2.25;;;;;;;-2.56;82.21;93673.19;2104436;28;20461;-84
2021/04/23 02:34:49;;;;;;;6.63;2.30;;;;;;;-2.58;82.29;93677.22;2112924;28;20086;-84
2021/04/23 02:35:52;;;;;;;4.93;2.20;;;;;;;-2.57;82.92;93670.91;2113125;28;20456;-84
2021/04/23 02:36:53;;;;;;;5.68;2.40;;;;;;;-2.51;83.06;93671.47;2112347;28;20035;-84
2021/04/23 02:37:54;;;;;;;3.65;1.95;;;;;;;-2.48;82.95;93668.22;2096357;28;20467;-84
2021/04/23 02:38:57;;;;;;;4.25;1.80;;;;;;;-2.52;82.94;93668.09;2103910;28;20024;-85
2021/04/23 02:39:57;;;;;;;3.00;2.10;;;;;;;-2.55;82.69;93672.13;2100145;28;20446;-84
2021/04/23 02:40:59;;;;;;;2.67;1.90;;;;;;;-2.58;82.61;93667.53;2110724;28;20472;-84
2021/04/23 02:41:59;;;;;;;5.93;2.17;;;;;;;-2.63;83.10;93664.34;2100383;28;20451;-84
2021/04/23 02:43:10;;;;;;;4.82;2.00;;;;;;;-2.69;82.71;93671.59;2099434;28;20539;-84
2021/04/23 02:44:10;;;;;;;;;;;;;;;-2.58;82.41;93662.28;2107124;28;20024;-84
2021/04/23 02:45:15;;;;;;;4.88;2.33;;;;;;;-2.59;82.55;93667.81;2101225;28;19974;-84
2021/04/23 02:46:18;;;;;;;2.38;1.67;;;;;;;-2.56;82.98;93667.19;2104832;28;20546;-84
2021/04/23 02:47:18;;;;;;;3.22;1.60;;;;;;;-2.55;82.72;93669.50;2103410;28;20457;-84
2021/04/23 02:48:21;;;;;;;5.57;2.40;;;;;;;-2.62;82.84;93661.41;2103727;28;20486;-84
2021/04/23 02:49:22;;;;;;;3.28;1.92;;;;;;;-2.70;83.59;93675.28;2104737;28;20147;-84
2021/04/23 02:50:26;;;;;;;3.38;2.08;;;;;;;-2.75;83.05;93674.72;2108879;28;21091;-84
2021/04/23 02:51:29;;;;;;;2.38;1.88;;;;;;;-2.73;83.37;93683.00;2110925;27;20028;-84
2021/04/23 02:52:30;;;;;;;6.85;2.50;;;;;;;-2.73;83.24;93677.78;2124058;27;20428;-84
2021/04/23 02:53:31;;;;;;;5.10;2.05;;;;;;;-2.72;83.43;93671.47;2118242;28;20441;-84
2021/04/23 02:54:32;;;;;;;3.58;2.22;;;;;;;-2.73;83.48;93675.94;2108362;27;20016;-84
2021/04/23 02:55:32;;;;;;;3.97;2.10;;;;;;;-2.78;84.17;93678.72;2106633;28;20458;-84
2021/04/23 02:56:34;;;;;;;4.63;2.20;;;;;;;-2.73;83.70;93672.53;2101558;28;20097;-83
2021/04/23 02:57:34;;;;;;;4.40;2.22;;;;;;;-2.72;83.43;93681.91;2103773;28;20731;-84
2021/04/23 02:58:35;;;;;;;2.15;1.70;;;;;;;-2.73;83.21;93678.53;2110299;28;20493;-84
2021/04/23 02:59:36;;;;;;;2.83;2.03;;;;;;;-2.75;83.01;93685.94;2114380;28;20024;-84
2021/04/23 03:00:39;;;;;;;3.95;2.10;;;;;;;-2.71;82.74;93680.84;2106424;28;20020;-84
2021/04/23 03:01:45;;;;;;;4.63;2.10;;;;;;;-2.70;83.38;93685.75;2099228;28;20024;-84
2021/04/23 03:02:46;;;;;;;3.10;1.85;;;;;;;-2.73;82.28;93683.78;2103685;28;20525;-84
2021/04/23 03:03:47;;;;;;;6.70;2.30;;;;;;;-2.72;83.10;93685.31;2098369;28;21045;-84
2021/04/23 03:04:48;;;;;;;3.92;1.92;;;;;;;-2.80;82.73;93679.06;2094978;28;20454;-83
2021/04/23 03:05:50;;;;;;;3.55;2.00;;;;;;;-2.75;82.63;93685.19;2104316;28;20429;-84
2021/04/23 03:06:50;;;;;;;3.35;2.10;;;;;;;-2.76;82.78;93687.03;2095575;28;20027;-84
2021/04/23 03:07:53;;;;;;;3.58;2.20;;;;;;;-2.82;82.50;93685.69;2079299;28;20801;-84
2021/04/23 03:08:54;;;;;;;3.47;2.05;;;;;;;-2.74;82.21;93681.50;2103588;28;20465;-84
2021/04/23 03:09:54;;;;;;;4.18;2.22;;;;;;;-2.76;82.97;93687.03;2095860;28;20423;-84
2021/04/23 03:11:08;;;;;;;4.85;2.25;;;;;;;-2.66;82.95;93684.03;2112624;28;20024;-84
2021/04/23 03:12:09;;;;;;;3.53;2.25;;;;;;;-2.69;82.07;93687.28;2102939;28;20031;-84
2021/04/23 03:13:18;;;;;;;5.57;1.77;;;;;;;-2.68;82.22;93688.81;2090157;28;20475;-84
2021/04/23 03:14:19;;;;;;;4.28;2.08;;;;;;;-2.70;81.83;93685.75;2093223;28;20450;-84
2021/04/23 03:15:22;;;;;;;5.45;2.10;;;;;;;-2.84;82.06;93682.63;2099148;28;20450;-86
2021/04/23 03:16:24;;;;;;;3.47;2.05;;;;;;;-2.85;82.79;93687.09;2105895;28;20081;-84
2021/04/23 03:17:25;;;;;;;2.05;1.80;;;;;;;-2.80;83.07;93680.91;2102509;28;20599;-84
2021/04/23 03:18:29;;;;;;;3.45;1.92;;;;;;;-2.79;83.12;93698.13;2094542;28;20451;-83
2021/04/23 03:19:30;;;;;;;3.42;1.92;;;;;;;-2.81;83.16;93693.22;2093677;28;20112;-84
2021/04/23 03:20:30;;;;;;;2.60;1.73;;;;;;;-2.76;83.00;93697.50;2095562;28;20442;-84
2021/04/23 03:21:31;;;;;;;2.67;1.83;;;;;;;-2.78;83.27;93697.81;2095477;28;20024;-84
2021/04/23 03:22:31;;;;;;;3.15;2.15;;;;;;;-2.81;82.35;93687.22;2089980;28;20021;-83
2021/04/23 03:23:33;;;;;;;3.50;1.90;;;;;;;-2.84;83.07;93693.09;2092684;28;20119;-87
2021/04/23 03:24:33;;;;;;;4.47;1.92;;;;;;;-2.85;83.52;93692.31;2086667;28;20029;-86
2021/04/23 03:25:34;;;;;;;4.60;1.98;;;;;;;-2.88;83.57;93684.34;2092475;28;20455;-84
2021/04/23 03:26:35;;;;;;;5.32;2.00;;;;;;;-2.79;83.53;93685.06;2100417;28;20020;-86
2021/04/23 03:27:35;;;;;;;2.78;1.85;;;;;;;-2.85;83.09;93684.47;2090017;28;20895;-84
2021/04/23 03:28:38;;;;;;;4.25;1.95;;;;;;;-2.88;82.76;93700.03;2092097;28;20052;-84
2021/04/23 03:29:38;;;;;;;2.60;1.80;;;;;;;-2.86;83.03;93696.00;2105084;28;20713;-84
2021/04/23 03:30:43;;;;;;;5.50;2.10;;;;;;;-2.87;83.19;93685.88;2091530;28;20444;-84
2021/04/23 03:31:44;;;;;;;3.05;1.63;;;;;;;-2.90;82.80;93686.50;2098262;28;20040;-85
2021/04/23 03:32:45;;;;;;;4.20;2.08;;;;;;;-2.94;83.47;93682.97;2090850;28;20462;-85
2021/04/23 03:33:46;;;;;;;4.50;2.15;;;;;;;-2.93;83.88;93687.16;2097251;28;20450;-84
2021/04/23 03:34:47;;;;;;;5.72;2.40;;;;;;;-2.91;84.06;93684.97;2082471;28;20029;-84
2021/04/23 03:35:52;;;;;;;4.50;2.03;;;;;;;-2.96;83.40;93685.16;2089605;28;20444;-85
2021/04/23 03:36:52;;;;;;;3.38;1.70;;;;;;;-2.94;83.55;93686.38;2090692;28;20585;-84
2021/04/23 03:37:53;;;;;;;3.45;2.28;;;;;;;-2.95;83.33;93686.69;2106257;28;20831;-84
2021/04/23 03:38:54;;;;;;;2.88;1.90;;;;;;;-2.95;83.41;93692.66;2082010;28;20458;-84
2021/04/23 03:39:55;;;;;;;2.85;1.90;;;;;;;-2.94;83.01;93683.78;2089326;28;20363;-83
2021/04/23 03:40:56;;;;;;;4.43;2.45;;;;;;;-2.95;82.99;93689.28;2090518;28;20036;-84
2021/04/23 03:41:57;;;;;;;6.65;2.08;;;;;;;-2.92;82.55;93688.66;2097374;28;20505;-84
2021/04/23 03:42:58;;;;;;;3.20;2.17;;;;;;;-3.01;82.66;93690.56;2082554;28;20440;-84
2021/04/23 03:44:00;;;;;;;3.95;1.70;;;;;;;-2.89;82.98;93691.44;2097013;28;20082;-84
2021/04/23 03:45:02;;;;;;;2.80;2.08;;;;;;;-2.87;82.19;93696.34;2094391;28;20463;-84
2021/04/23 03:46:03;;;;;;;4.97;1.90;;;;;;;-2.89;82.24;93693.28;2093784;28;20455;-84
2021/04/23 03:47:04;;;;;;;4.95;2.08;;;;;;;-2.97;82.95;93683.63;2084061;28;20455;-83
2021/04/23 03:48:07;;;;;;;3.72;2.40;;;;;;;-3.04;83.38;93687.47;2085372;28;20495;-84
2021/04/23 03:49:08;;;;;;;4.13;2.63;;;;;;;-3.09;83.33;93690.28;2111956;28;20379;-84
2021/04/23 03:50:11;;;;;;;4.32;2.05;;;;;;;-3.04;83.67;93691.94;2092426;28;20451;-83
2021/04/23 03:51:14;;;;;;;3.97;2.15;;;;;;;-3.09;84.04;93689.53;2096024;28;20039;-85
2021/04/23 03:52:14;;;;;;;3.58;2.10;;;;;;;-3.04;83.71;93697.94;2095599;28;20451;-85
2021/04/23 03:53:16;;;;;;;3.55;2.00;;;;;;;-3.10;83.85;93685.38;2088257;28;20823;-85
2021/04/23 03:54:17;;;;;;;5.43;2.38;;;;;;;-3.09;83.52;93682.44;2096997;28;20051;-85
2021/04/23 03:55:23;;;;;;;3.45;2.10;;;;;;;-3.11;83.60;93687.22;2093463;28;20971;-84
2021/04/23 03:56:23;;;;;;;3.65;2.35;;;;;;;-3.05;83.71;93695.66;2091310;28;20024;-84
2021/04/23 03:57:24;;;;;;;4.55;2.22;;;;;;;-3.04;83.68;93690.09;2092435;28;20451;-84
2021/04/23 03:58:25;;;;;;;3.60;2.47;;;;;;;-3.02;83.72;93696.88;2090070;28;20036;-84
2021/04/23 03:59:26;;;;;;;8.48;3.47;;;;;;;-3.09;83.81;93695.50;2084013;28;20067;-84
2021/04/23 04:00:44;;;;;;;7.60;3.10;;;;;;;-3.09;84.27;93690.28;2094118;28;20063;-84
2021/04/23 04:01:45;;;;;;;7.20;2.70;;;;;;;-3.12;84.82;93685.69;2101556;28;20036;-84
2021/04/23 04:02:45;;;;;;;7.13;2.33;;;;;;;-3.11;84.29;93689.84;2093769;28;20498;-84
2021/04/23 04:03:48;;;;;;;2.90;2.38;;;;;;;-3.12;84.49;93693.53;2081197;28;20030;-84
2021/04/23 04:04:48;;;;;;;5.13;2.42;;;;;;;-3.21;84.82;93692.78;2106063;28;20028;-83
2021/04/23 04:05:49;;;;;;;4.30;2.33;;;;;;;-3.19;84.64;93698.50;2098264;28;20450;-84
2021/04/23 04:06:49;;;;;;;5.32;2.35;;;;;;;-3.19;84.36;93695.88;2089501;28;20025;-84
2021/04/23 04:07:50;;;;;;;6.95;2.50;;;;;;;-3.23;84.36;93689.75;2089805;28;20413;-84
2021/04/23 04:08:51;;;;;;;5.00;2.25;;;;;;;-3.24;84.17;93693.44;2097708;28;20028;-84
2021/04/23 04:09:52;;;;;;;5.15;2.47;;;;;;;-3.21;84.44;93695.41;2081279;28;20041;-84
2021/04/23 04:10:52;;;;;;;6.13;2.38;;;;;;;-3.18;83.75;93697.41;2089465;28;20558;-84
2021/04/23 04:11:53;;;;;;;8.02;2.22;;;;;;;-3.22;84.46;93691.28;2089854;28;20056;-84
2021/04/23 04:12:54;;;;;;;5.15;2.25;;;;;;;-3.15;84.12;93688.19;2093314;28;20025;-84
2021/04/23 04:13:54;;;;;;;5.65;2.15;;;;;;;-3.21;84.33;93692.78;2089146;28;20459;-84
2021/04/23 04:14:55;;;;;;;4.47;2.22;;;;;;;-3.18;84.86;93692.19;2098507;28;20025;-84
2021/04/23 04:15:56;;;;;;;5.07;2.30;;;;;;;-3.23;84.58;93697.59;2105720;28;20134;-84
2021/04/23 04:16:56;;;;;;;3.80;2.10;;;;;;;-3.16;83.95;93691.84;2093003;28;20036;-84
2021/04/23 04:17:57;;;;;;;3.85;1.88;;;;;;;-3.18;84.27;93697.41;2091335;28;20072;-84
2021/04/23 04:18:57;;;;;;;6.07;2.55;;;;;;;-3.17;83.88;93693.69;2105334;28;20155;-84
2021/04/23 04:19:59;;;;;;;6.35;2.40;;;;;;;-3.24;84.33;93701.28;2090382;28;20051;-84
2021/04/23 04:21:00;;;;;;;6.07;2.30;;;;;;;-3.24;84.84;93698.69;2095858;28;20029;-84
2021/04/23 04:22:00;;;;;;;4.20;2.17;;;;;;;-3.19;84.32;93706.34;2095937;28;20447;-84
2021/04/23 04:23:00;;;;;;;3.88;2.40;;;;;;;-3.21;84.17;93703.25;2082356;28;20494;-84
2021/04/23 04:24:01;;;;;;;3.53;2.00;;;;;;;-3.21;84.23;93698.03;2097185;28;20519;-84
2021/04/23 04:25:07;;;;;;;3.80;2.15;;;;;;;-3.18;85.00;93702.63;2103977;28;20059;-84
2021/04/23 04:26:08;;;;;;;4.78;2.10;;;;;;;-3.21;nan;93703.25;2100202;28;20028;-84
2021/04/23 04:27:09;;;;;;;5.53;2.38;;;;;;;-3.30;84.77;93705.91;2103505;28;20497;-84
2021/04/23 04:28:10;;;;;;;4.45;2.20;;;;;;;-3.26;84.48;93705.28;2099695;28;20424;-84
2021/04/23 04:29:11;;;;;;;3.53;2.25;;;;;;;-3.34;84.73;93707.59;2086821;28;20471;-84
2021/04/23 04:30:13;;;;;;;5.32;2.00;;;;;;;-3.34;84.36;93702.38;2084165;28;20783;-83
2021/04/23 04:31:14;;;;;;;4.72;2.50;;;;;;;-3.26;84.80;93703.44;2086667;28;20456;-83
2021/04/23 04:32:15;;;;;;;3.72;1.90;;;;;;;-3.25;84.88;93707.56;2084513;28;20521;-83
2021/04/23 04:33:16;;;;;;;3.33;2.20;;;;;;;-3.25;84.91;93701.59;2094193;28;20029;-82
2021/04/23 04:34:17;;;;;;;5.88;1.88;;;;;;;-3.27;84.68;93714.22;2080656;28;20494;-84
2021/04/23 04:35:17;;;;;;;5.70;2.40;;;;;;;-3.33;84.35;93711.00;2084906;28;20039;-84
2021/04/23 04:36:18;;;;;;;4.32;2.10;;;;;;;-3.38;84.39;93713.78;2094011;28;20025;-84
2021/04/23 04:37:19;;;;;;;4.10;2.17;;;;;;;-3.27;84.71;93719.44;2081146;28;20029;-84
2021/04/23 04:38:19;;;;;;;3.58;1.88;;;;;;;-3.29;nan;93711.91;2093315;28;20482;-84
2021/04/23 04:39:20;;;;;;;7.18;2.03;;;;;;;-3.23;84.53;93715.88;2101909;28;20032;-84
2021/04/23 04:40:22;;;;;;;4.05;2.28;;;;;;;-3.17;83.72;93714.63;2093449;28;20021;-84
2021/04/23 04:41:23;;;;;;;4.32;2.22;;;;;;;-3.11;83.57;93713.38;2093905;28;20035;-83
2021/04/23 04:42:24;;;;;;;3.83;2.15;;;;;;;-3.15;83.32;93716.94;2093420;28;21078;-84
2021/04/23 04:43:24;;;;;;;3.42;2.17;;;;;;;-3.16;84.21;93725.84;2094067;28;20492;-84
2021/04/23 04:44:25;;;;;;;3.42;1.80;;;;;;;-3.18;84.71;93715.69;2089457;28;20530;-83
2021/04/23 04:45:27;;;;;;;4.53;2.03;;;;;;;-3.17;84.83;93726.94;2097574;28;20031;-84
2021/04/23 04:46:28;;;;;;;3.88;2.10;;;;;;;-3.21;84.63;93726.78;2090020;28;20033;-84
2021/04/23 04:47:31;;;;;;;4.35;2.38;;;;;;;-3.18;83.83;93720.94;2088983;28;20455;-83
2021/04/23 04:48:31;;;;;;;6.93;2.58;;;;;;;-3.16;83.98;93729.25;2089515;28;20119;-84
2021/04/23 04:49:32;;;;;;;3.88;2.30;;;;;;;-3.19;84.24;93722.03;2097284;28;20443;-81
2021/04/23 04:50:35;;;;;;;4.15;2.25;;;;;;;-3.11;84.38;93733.53;2089511;28;20484;-84
2021/04/23 04:51:36;;;;;;;3.33;1.95;;;;;;;-3.12;83.95;93724.13;2090579;28;20519;-82
2021/04/23 04:52:36;;;;;;;4.60;2.40;;;;;;;-3.19;84.25;93729.88;2100501;28;20458;-83
2021/04/23 04:53:37;;;;;;;5.07;2.15;;;;;;;-3.17;84.64;93719.84;2092510;28;20033;-84
2021/04/23 04:54:38;;;;;;;3.55;1.88;;;;;;;-3.18;84.54;93723.53;2083477;28;20025;-83
2021/04/23 04:55:41;;;;;;;4.97;2.35;;;;;;;-3.15;84.94;93730.00;2084220;28;20405;-84